Algoma Harvester — XJBK — position and weather

sailwx.info

Track history (hours):
 
Tides and Currents Weather Stations Pressure Air Temp Water Temp Dewpoint Dewpoint Depression Visibility Wind Speed Wind Dir Waves Ship Positions

Algoma Harvester

Last reported at 2017-Nov-18 06:38 UTC. Time now 2017-Nov-18 16:01 UTC.
Position N 46°56' W 091°34'.

Length 226 m; draft 8.1 m.

Type: Cargo ship. MMSI: 316011710.

Date/timePositionNaut miles runAvg speedWind from/ knotsBaromVisibWave heightAir tempDewpointWater temp
2017-Nov-18 06:38N 46°56' W 091°34'313.5
2017-Nov-18 06:26N 46°54' W 091°37'613.6
2017-Nov-18 06:00N 46°51' W 091°44'713.6
2017-Nov-18 05:30N 46°47' W 091°52'612.9
2017-Nov-18 05:00N 46°43' W 091°60'1 2.5
2017-Nov-18 04:30N 46°42' W 092°01'0 0.0
2017-Nov-18 03:58N 46°42' W 092°01'0 0.0
2017-Nov-18 03:28N 46°42' W 092°01'0 0.0
2017-Nov-18 02:46N 46°42' W 092°01'0 0.0
2017-Nov-18 02:28N 46°42' W 092°01'0 0.0
2017-Nov-18 01:58N 46°42' W 092°01'0 0.0
2017-Nov-18 01:19N 46°42' W 092°01'0 0.0
2017-Nov-18 00:49N 46°42' W 092°01'0 0.0
2017-Nov-18 00:16N 46°42' W 092°01'0 0.0
2017-Nov-17 23:49N 46°42' W 092°01'0 0.0
2017-Nov-17 23:22N 46°42' W 092°01'0 0.0
2017-Nov-17 22:52N 46°42' W 092°01'0 0.0
2017-Nov-17 22:19N 46°42' W 092°01'0 0.0
2017-Nov-17 21:55N 46°42' W 092°01'0 0.0
2017-Nov-17 21:25N 46°42' W 092°01'0 0.0
2017-Nov-17 20:52N 46°42' W 092°01'0 0.0
2017-Nov-17 20:25N 46°42' W 092°01'0 0.0
2017-Nov-17 19:55N 46°42' W 092°01'0 0.0
2017-Nov-17 19:25N 46°42' W 092°01'0 0.0
2017-Nov-17 18:55N 46°42' W 092°01'0 0.0
2017-Nov-17 18:13N 46°42' W 092°01'0 0.0
2017-Nov-17 17:58N 46°42' W 092°01'0 0.0
2017-Nov-17 17:28N 46°42' W 092°01'0 0.0
2017-Nov-17 16:58N 46°42' W 092°01'0 0.0
2017-Nov-17 16:28N 46°42' W 092°01'0 0.0
2017-Nov-17 15:55N 46°42' W 092°01'0 0.0
2017-Nov-17 15:28N 46°42' W 092°01'0 0.0
2017-Nov-17 14:58N 46°42' W 092°01'0 0.0
2017-Nov-17 14:28N 46°42' W 092°01'0 0.0
2017-Nov-17 13:58N 46°42' W 092°01'0 0.0
2017-Nov-17 13:16N 46°42' W 092°01'0 0.6
2017-Nov-17 13:00N 46°42' W 092°01'2 3.6
2017-Nov-17 12:30N 46°43' W 091°59'1 1.9
2017-Nov-17 12:00N 46°44' W 091°59'0 0.0
2017-Nov-17 11:30N 46°44' W 091°59'0 0.1
2017-Nov-17 11:00N 46°44' W 091°59'0 0.0
2017-Nov-17 10:30N 46°44' W 091°59'0 0.0
2017-Nov-17 10:00N 46°44' W 091°59'0 0.1
2017-Nov-17 09:30N 46°44' W 091°59'0 0.0
2017-Nov-17 09:00N 46°44' W 091°59'0 0.0
2017-Nov-17 08:30N 46°44' W 091°59'0 0.0
2017-Nov-17 08:00N 46°44' W 091°59'0 0.0
2017-Nov-17 07:30N 46°44' W 091°59'0 0.0
2017-Nov-17 07:00N 46°44' W 091°59'0 0.0
2017-Nov-17 06:30N 46°44' W 091°59'0 0.0
2017-Nov-17 06:01N 46°44' W 091°59'0 0.0
2017-Nov-17 05:30N 46°44' W 091°59'0 0.0
2017-Nov-17 05:01N 46°44' W 091°59'0 0.0
2017-Nov-17 04:31N 46°44' W 091°59'0 0.0
2017-Nov-17 04:00N 46°44' W 091°59'0 0.0
2017-Nov-17 03:30N 46°44' W 091°59'0 0.0
2017-Nov-17 03:00N 46°44' W 091°59'0 0.0
2017-Nov-17 02:30N 46°44' W 091°59'0 0.0
2017-Nov-17 02:00N 46°44' W 091°59'0 0.0
2017-Nov-17 01:30N 46°44' W 091°59'0 0.0
2017-Nov-17 01:00N 46°44' W 091°59'0 0.0
2017-Nov-17 00:30N 46°44' W 091°59'0 0.3
2017-Nov-17 00:01N 46°44' W 091°59'611.1
2017-Nov-16 23:30N 46°46' W 091°51'714.2
2017-Nov-16 23:00N 46°49' W 091°42'328 8.6
2017-Nov-15 08:55N 45°36' W 083°60'614.5
2017-Nov-15 08:30N 45°33' W 083°52'714.0
2017-Nov-15 08:00N 45°30' W 083°43'714.4
2017-Nov-15 07:30N 45°28' W 083°34'914.3
2017-Nov-15 06:52N 45°24' W 083°22'  
2017-Nov-11 03:28N 45°14' W 074°14'5 9.3
2017-Nov-11 02:58N 45°14' W 074°07'3 7.1
2017-Nov-11 02:30N 45°13' W 074°02'4 8.3
2017-Nov-11 02:00N 45°16' W 073°58'3 5.9
2017-Nov-11 01:30N 45°18' W 073°56'0 0.5
2017-Nov-11 01:00N 45°18' W 073°55'1 1.3
2017-Nov-11 00:30N 45°19' W 073°55'0 0.1
2017-Nov-11 00:00N 45°19' W 073°55'0 0.0
2017-Nov-10 23:30N 45°19' W 073°55'0 0.0
2017-Nov-10 23:00N 45°19' W 073°55'0 0.0
2017-Nov-10 22:30N 45°19' W 073°55'0 0.0
2017-Nov-10 22:00N 45°19' W 073°55'0 0.0
2017-Nov-10 21:30N 45°19' W 073°55'0 0.0
2017-Nov-10 21:00N 45°19' W 073°55'1 1.3
2017-Nov-10 20:30N 45°20' W 073°55'3 6.4
2017-Nov-10 20:00N 45°21' W 073°51'510.0
2017-Nov-10 19:30N 45°24' W 073°45'3 6.5
2017-Nov-10 19:00N 45°25' W 073°41'3 5.5
2017-Nov-10 18:26N 45°24' W 073°36'2 3.6
2017-Nov-10 17:59N 45°24' W 073°34'0 0.4
2017-Nov-10 17:28N 45°24' W 073°34'1 2.0
2017-Nov-10 17:00N 45°24' W 073°32'2 4.4
2017-Nov-10 16:30N 45°26' W 073°30'3 5.7
2017-Nov-10 15:54N 45°29' W 073°31'1 0.7
2017-Nov-10 15:01N 45°30' W 073°31'0 3.3
2017-Nov-10 15:00N 45°30' W 073°31'  
Track history (hours):
 
Tides and Currents Weather Stations Pressure Air Temp Water Temp Dewpoint Dewpoint Depression Visibility Wind Speed Wind Dir Waves Ship Positions

Algoma Harvester

Last reported at 2017-Nov-18 06:38 UTC. Time now 2017-Nov-18 16:01 UTC.
Position N 46°56' W 091°34'.

Length 226 m; draft 8.1 m.

Type: Cargo ship. MMSI: 316011710.

Date/timePositionNaut miles runAvg speedWind from/ knotsBaromVisibWave heightAir tempDewpointWater temp
2017-Nov-18 06:38N 46°56' W 091°34'313.5
2017-Nov-18 06:26N 46°54' W 091°37'613.6
2017-Nov-18 06:00N 46°51' W 091°44'713.6
2017-Nov-18 05:30N 46°47' W 091°52'612.9
2017-Nov-18 05:00N 46°43' W 091°60'1 2.5
2017-Nov-18 04:30N 46°42' W 092°01'0 0.0
2017-Nov-18 03:58N 46°42' W 092°01'0 0.0
2017-Nov-18 03:28N 46°42' W 092°01'0 0.0
2017-Nov-18 02:46N 46°42' W 092°01'0 0.0
2017-Nov-18 02:28N 46°42' W 092°01'0 0.0
2017-Nov-18 01:58N 46°42' W 092°01'0 0.0
2017-Nov-18 01:19N 46°42' W 092°01'0 0.0
2017-Nov-18 00:49N 46°42' W 092°01'0 0.0
2017-Nov-18 00:16N 46°42' W 092°01'0 0.0
2017-Nov-17 23:49N 46°42' W 092°01'0 0.0
2017-Nov-17 23:22N 46°42' W 092°01'0 0.0
2017-Nov-17 22:52N 46°42' W 092°01'0 0.0
2017-Nov-17 22:19N 46°42' W 092°01'0 0.0
2017-Nov-17 21:55N 46°42' W 092°01'0 0.0
2017-Nov-17 21:25N 46°42' W 092°01'0 0.0
2017-Nov-17 20:52N 46°42' W 092°01'0 0.0
2017-Nov-17 20:25N 46°42' W 092°01'0 0.0
2017-Nov-17 19:55N 46°42' W 092°01'0 0.0
2017-Nov-17 19:25N 46°42' W 092°01'0 0.0
2017-Nov-17 18:55N 46°42' W 092°01'0 0.0
2017-Nov-17 18:13N 46°42' W 092°01'0 0.0
2017-Nov-17 17:58N 46°42' W 092°01'0 0.0
2017-Nov-17 17:28N 46°42' W 092°01'0 0.0
2017-Nov-17 16:58N 46°42' W 092°01'0 0.0
2017-Nov-17 16:28N 46°42' W 092°01'0 0.0
2017-Nov-17 15:55N 46°42' W 092°01'0 0.0
2017-Nov-17 15:28N 46°42' W 092°01'0 0.0
2017-Nov-17 14:58N 46°42' W 092°01'0 0.0
2017-Nov-17 14:28N 46°42' W 092°01'0 0.0
2017-Nov-17 13:58N 46°42' W 092°01'0 0.0
2017-Nov-17 13:16N 46°42' W 092°01'0 0.6
2017-Nov-17 13:00N 46°42' W 092°01'2 3.6
2017-Nov-17 12:30N 46°43' W 091°59'1 1.9
2017-Nov-17 12:00N 46°44' W 091°59'0 0.0
2017-Nov-17 11:30N 46°44' W 091°59'0 0.1
2017-Nov-17 11:00N 46°44' W 091°59'0 0.0
2017-Nov-17 10:30N 46°44' W 091°59'0 0.0
2017-Nov-17 10:00N 46°44' W 091°59'0 0.1
2017-Nov-17 09:30N 46°44' W 091°59'0 0.0
2017-Nov-17 09:00N 46°44' W 091°59'0 0.0
2017-Nov-17 08:30N 46°44' W 091°59'0 0.0
2017-Nov-17 08:00N 46°44' W 091°59'0 0.0
2017-Nov-17 07:30N 46°44' W 091°59'0 0.0
2017-Nov-17 07:00N 46°44' W 091°59'0 0.0
2017-Nov-17 06:30N 46°44' W 091°59'0 0.0
2017-Nov-17 06:01N 46°44' W 091°59'0 0.0
2017-Nov-17 05:30N 46°44' W 091°59'0 0.0
2017-Nov-17 05:01N 46°44' W 091°59'0 0.0
2017-Nov-17 04:31N 46°44' W 091°59'0 0.0
2017-Nov-17 04:00N 46°44' W 091°59'0 0.0
2017-Nov-17 03:30N 46°44' W 091°59'0 0.0
2017-Nov-17 03:00N 46°44' W 091°59'0 0.0
2017-Nov-17 02:30N 46°44' W 091°59'0 0.0
2017-Nov-17 02:00N 46°44' W 091°59'0 0.0
2017-Nov-17 01:30N 46°44' W 091°59'0 0.0
2017-Nov-17 01:00N 46°44' W 091°59'0 0.0
2017-Nov-17 00:30N 46°44' W 091°59'0 0.3
2017-Nov-17 00:01N 46°44' W 091°59'611.1
2017-Nov-16 23:30N 46°46' W 091°51'714.2
2017-Nov-16 23:00N 46°49' W 091°42'328 8.6
2017-Nov-15 08:55N 45°36' W 083°60'614.5
2017-Nov-15 08:30N 45°33' W 083°52'714.0
2017-Nov-15 08:00N 45°30' W 083°43'714.4
2017-Nov-15 07:30N 45°28' W 083°34'914.3
2017-Nov-15 06:52N 45°24' W 083°22'  
2017-Nov-11 03:28N 45°14' W 074°14'5 9.3
2017-Nov-11 02:58N 45°14' W 074°07'3 7.1
2017-Nov-11 02:30N 45°13' W 074°02'4 8.3
2017-Nov-11 02:00N 45°16' W 073°58'3 5.9
2017-Nov-11 01:30N 45°18' W 073°56'0 0.5
2017-Nov-11 01:00N 45°18' W 073°55'1 1.3
2017-Nov-11 00:30N 45°19' W 073°55'0 0.1
2017-Nov-11 00:00N 45°19' W 073°55'0 0.0
2017-Nov-10 23:30N 45°19' W 073°55'0 0.0
2017-Nov-10 23:00N 45°19' W 073°55'0 0.0
2017-Nov-10 22:30N 45°19' W 073°55'0 0.0
2017-Nov-10 22:00N 45°19' W 073°55'0 0.0
2017-Nov-10 21:30N 45°19' W 073°55'0 0.0
2017-Nov-10 21:00N 45°19' W 073°55'1 1.3
2017-Nov-10 20:30N 45°20' W 073°55'3 6.4
2017-Nov-10 20:00N 45°21' W 073°51'510.0
2017-Nov-10 19:30N 45°24' W 073°45'3 6.5
2017-Nov-10 19:00N 45°25' W 073°41'3 5.5
2017-Nov-10 18:26N 45°24' W 073°36'2 3.6
2017-Nov-10 17:59N 45°24' W 073°34'0 0.4
2017-Nov-10 17:28N 45°24' W 073°34'1 2.0
2017-Nov-10 17:00N 45°24' W 073°32'2 4.4
2017-Nov-10 16:30N 45°26' W 073°30'3 5.7
2017-Nov-10 15:54N 45°29' W 073°31'1 0.7
2017-Nov-10 15:01N 45°30' W 073°31'0 3.3
2017-Nov-10 15:00N 45°30' W 073°31'  

Dump ship's entire track history